LFBC 030830Z AUTO 26008KT 230V290 CAVOK 23/17 Q1009 NOSIG
LFBD 030830Z AUTO 24007KT 210V280 CAVOK 24/16 Q1008 NOSIG